Time;durP1;ratioP1;P1;durP2;ratioP2;P2;SDS_P1;SDS_P2;PMS_P1;PMS_P2;Temp;Humidity;BMP_temperature;BMP_pressure;BME280_temperature;BME280_humidity;BME280_pressure;Samples;Min_cycle;Max_cycle;Signal;HPM_P1;HPM_P2
2021/10/25 00:00:36;;;;;;;15.27;12.50;;;14.30;55.10;;;;;;5053343;28;20044;-75
2021/10/25 00:03:01;;;;;;;14.18;11.10;;;14.20;55.30;;;;;;5051673;28;20496;-75
2021/10/25 00:05:27;;;;;;;14.48;11.95;;;14.20;56.30;;;;;;5032949;28;20034;-74
2021/10/25 00:07:54;;;;;;;18.27;12.30;;;14.20;55.00;;;;;;5027182;28;20032;-75
2021/10/25 00:10:19;;;;;;;13.45;11.23;;;14.20;54.40;;;;;;5033793;28;20041;-74
2021/10/25 00:12:45;;;;;;;14.27;12.02;;;14.10;53.30;;;;;;5033249;28;20033;-75
2021/10/25 00:15:11;;;;;;;15.18;10.85;;;14.10;55.20;;;;;;5033833;28;20033;-75
2021/10/25 00:17:38;;;;;;;16.42;12.00;;;14.00;59.10;;;;;;5042694;28;20040;-75
2021/10/25 00:20:08;;;;;;;16.92;11.18;;;14.00;58.60;;;;;;5053618;28;20037;-75
2021/10/25 00:22:34;;;;;;;12.82;10.50;;;14.10;57.80;;;;;;5040916;28;20527;-75
2021/10/25 00:24:59;;;;;;;14.05;10.60;;;14.00;55.30;;;;;;5033653;28;20108;-75
2021/10/25 00:27:25;;;;;;;14.57;10.50;;;14.00;62.70;;;;;;5035075;28;20387;-75
2021/10/25 00:29:51;;;;;;;15.50;11.00;;;14.10;66.60;;;;;;5029991;28;20494;-75
2021/10/25 00:32:17;;;;;;;15.13;10.93;;;14.00;61.80;;;;;;5038264;28;20040;-75
2021/10/25 00:34:42;;;;;;;16.48;10.85;;;14.00;63.50;;;;;;5053149;28;20048;-74
2021/10/25 00:37:08;;;;;;;13.32;10.75;;;14.10;63.00;;;;;;5049825;28;20047;-75
2021/10/25 00:39:34;;;;;;;13.55;10.82;;;14.10;63.40;;;;;;5053258;28;20029;-74
2021/10/25 00:42:00;;;;;;;9.88;8.77;;;14.00;63.00;;;;;;5027013;28;20110;-74
2021/10/25 00:44:29;;;;;;;10.95;8.30;;;14.10;62.90;;;;;;5033342;28;20029;-74
2021/10/25 00:46:55;;;;;;;9.85;7.90;;;14.10;62.80;;;;;;5035433;28;20359;-74
2021/10/25 00:49:20;;;;;;;11.65;8.90;;;14.10;62.40;;;;;;5051804;28;20471;-75
2021/10/25 00:51:46;;;;;;;8.15;6.47;;;14.00;61.90;;;;;;5049483;28;20041;-75
2021/10/25 00:54:12;;;;;;;6.45;5.70;;;14.10;62.10;;;;;;5035235;28;20037;-75
2021/10/25 00:56:42;;;;;;;10.77;6.72;;;14.00;61.70;;;;;;5049637;28;20037;-75
2021/10/25 00:59:08;;;;;;;7.25;5.22;;;14.00;61.20;;;;;;5053369;28;20029;-74
2021/10/25 01:01:33;;;;;;;9.10;5.90;;;14.00;61.00;;;;;;5051477;28;20037;-75
2021/10/25 01:04:21;;;;;;;9.52;6.65;;;14.00;61.60;;;;;;5033273;28;20030;-75
2021/10/25 01:06:48;;;;;;;10.23;7.28;;;14.10;62.70;;;;;;5033347;28;20060;-74
2021/10/25 01:09:19;;;;;;;10.07;7.15;;;14.00;63.50;;;;;;5051720;28;20021;-74
2021/10/25 01:11:48;;;;;;;10.32;7.53;;;14.00;63.10;;;;;;5049002;28;20413;-75
2021/10/25 01:14:15;;;;;;;12.15;8.25;;;14.10;63.80;;;;;;5033073;28;20535;-74
2021/10/25 01:16:40;;;;;;;10.07;7.68;;;14.00;63.40;;;;;;5031582;28;20085;-74
2021/10/25 01:19:06;;;;;;;11.93;7.13;;;14.10;63.80;;;;;;5049632;28;20108;-74
2021/10/25 01:21:33;;;;;;;10.45;7.38;;;14.10;64.70;;;;;;5051556;28;20457;-74
2021/10/25 01:23:59;;;;;;;14.85;8.38;;;14.10;65.40;;;;;;5021120;28;20495;-74
2021/10/25 01:26:25;;;;;;;10.27;7.20;;;14.10;65.20;;;;;;5013129;28;20438;-74
2021/10/25 01:28:55;;;;;;;7.88;6.45;;;14.10;62.80;;;;;;5048191;28;20033;-74
2021/10/25 01:31:22;;;;;;;9.75;7.68;;;14.10;63.40;;;;;;5052733;28;20390;-74
2021/10/25 01:33:50;;;;;;;8.50;7.10;;;14.00;63.60;;;;;;5048202;28;20045;-73
2021/10/25 01:36:16;;;;;;;14.63;7.38;;;14.00;62.40;;;;;;5033944;28;20057;-74
2021/10/25 01:38:42;;;;;;;8.82;6.95;;;14.10;62.40;;;;;;5050872;28;20040;-74
2021/10/25 01:41:08;;;;;;;9.23;7.38;;;14.10;63.20;;;;;;5053358;28;20028;-74
2021/10/25 01:43:35;;;;;;;9.30;6.80;;;14.10;63.60;;;;;;5040435;28;20391;-75
2021/10/25 01:46:01;;;;;;;13.65;6.32;;;14.10;62.90;;;;;;5036896;28;20021;-74
2021/10/25 01:48:27;;;;;;;10.70;5.88;;;14.10;63.10;;;;;;5047956;28;20115;-74
2021/10/25 01:50:52;;;;;;;8.00;6.30;;;14.10;62.90;;;;;;5046795;28;20101;-75
2021/10/25 01:53:18;;;;;;;13.77;10.23;;;14.10;62.90;;;;;;5035314;28;20057;-74
2021/10/25 01:55:45;;;;;;;12.23;10.13;;;14.00;63.80;;;;;;5035615;28;20063;-74
2021/10/25 01:58:11;;;;;;;14.52;10.70;;;14.00;64.50;;;;;;5045427;28;20482;-74
2021/10/25 02:00:36;;;;;;;16.58;11.77;;;14.10;65.30;;;;;;5054904;28;20052;-74
2021/10/25 02:03:02;;;;;;;20.13;12.95;;;14.00;65.60;;;;;;5042329;28;20029;-74
2021/10/25 02:05:28;;;;;;;20.05;14.18;;;14.10;66.30;;;;;;5036502;28;20033;-74
2021/10/25 02:07:53;;;;;;;16.52;12.48;;;14.00;67.80;;;;;;5043143;28;20037;-74
2021/10/25 02:10:20;;;;;;;16.17;12.77;;;13.90;67.50;;;;;;5056074;28;20112;-74
2021/10/25 02:12:45;;;;;;;16.35;13.50;;;14.00;68.20;;;;;;5047729;28;20040;-74
2021/10/25 02:15:11;;;;;;;19.38;13.90;;;14.00;69.00;;;;;;5035978;28;20018;-74
2021/10/25 02:17:37;;;;;;;18.75;14.68;;;14.00;69.40;;;;;;5040483;28;20033;-74
2021/10/25 02:20:03;;;;;;;18.45;15.13;;;13.90;70.50;;;;;;5054712;28;20029;-74
2021/10/25 02:22:29;;;;;;;16.83;14.70;;;13.80;71.00;;;;;;5047673;28;20074;-74
2021/10/25 02:24:56;;;;;;;17.45;14.68;;;13.80;73.20;;;;;;5054547;28;20033;-74
2021/10/25 02:27:22;;;;;;;16.63;14.25;;;13.80;76.70;;;;;;5050963;28;20037;-74
2021/10/25 02:29:51;;;;;;;19.38;15.55;;;13.80;58.90;;;;;;5035743;28;20383;-73
2021/10/25 02:32:18;;;;;;;20.42;15.63;;;13.90;59.30;;;;;;5035371;28;20061;-73
2021/10/25 02:34:45;;;;;;;19.75;15.45;;;13.80;59.90;;;;;;5055376;28;20581;-73
2021/10/25 02:37:11;;;;;;;21.27;15.90;;;13.80;60.20;;;;;;5052693;28;20033;-73
2021/10/25 02:39:38;;;;;;;22.17;16.13;;;13.90;61.00;;;;;;5035533;28;20486;-74
2021/10/25 02:42:04;;;;;;;20.17;15.73;;;13.80;61.50;;;;;;5034621;28;20025;-73
2021/10/25 02:44:29;;;;;;;20.55;16.17;;;13.80;62.70;;;;;;5015688;28;20030;-73
2021/10/25 02:46:55;;;;;;;20.92;16.38;;;13.80;64.00;;;;;;5015547;28;20495;-73
2021/10/25 02:49:22;;;;;;;21.58;15.10;;;13.80;66.10;;;;;;5034126;28;20046;-73
2021/10/25 02:51:48;;;;;;;18.80;15.38;;;13.90;70.50;;;;;;5033278;28;20037;-73
2021/10/25 02:54:13;;;;;;;20.02;15.02;;;13.80;76.20;;;;;;5032358;28;20029;-73
2021/10/25 02:56:39;;;;;;;21.33;14.98;;;13.80;70.10;;;;;;5033967;28;20041;-74
2021/10/25 02:59:11;;;;;;;22.85;16.23;;;13.80;67.20;;;;;;5033004;28;20091;-73
2021/10/25 03:01:38;;;;;;;20.35;15.70;;;13.80;67.90;;;;;;5035114;28;20045;-73
2021/10/25 03:04:06;;;;;;;18.42;15.60;;;13.80;68.50;;;;;;5049645;28;20067;-73
2021/10/25 03:06:32;;;;;;;25.23;16.27;;;13.90;65.20;;;;;;5054903;28;20457;-73
2021/10/25 03:08:59;;;;;;;20.80;15.43;;;13.80;60.40;;;;;;5038190;28;20090;-73
2021/10/25 03:11:25;;;;;;;19.98;15.65;;;13.90;59.50;;;;;;5034737;28;20048;-73
2021/10/25 03:13:53;;;;;;;19.50;15.57;;;13.80;58.90;;;;;;5044956;28;20029;-73
2021/10/25 03:16:20;;;;;;;20.17;16.10;;;13.70;58.80;;;;;;5014686;28;20066;-72
2021/10/25 03:18:47;;;;;;;20.25;15.82;;;13.80;59.00;;;;;;5026539;28;20075;-73
2021/10/25 03:21:12;;;;;;;22.40;15.98;;;13.70;58.90;;;;;;5034602;28;20037;-72
2021/10/25 03:23:48;;;;;;;17.63;14.80;;;13.80;58.80;;;;;;5039837;28;20490;-73
2021/10/25 03:26:15;;;;;;;17.80;14.48;;;13.70;58.20;;;;;;5034527;28;20060;-73
2021/10/25 03:28:41;;;;;;;18.05;14.57;;;13.70;58.40;;;;;;5043988;28;20025;-73
2021/10/25 03:31:07;;;;;;;18.23;14.90;;;13.70;58.50;;;;;;5054744;28;20035;-73
2021/10/25 03:33:34;;;;;;;19.02;15.32;;;13.80;58.30;;;;;;5042395;28;20159;-73
2021/10/25 03:36:02;;;;;;;19.75;14.98;;;13.80;58.10;;;;;;5034158;28;20110;-73
2021/10/25 03:38:31;;;;;;;20.00;16.05;;;13.70;57.80;;;;;;5042415;28;20498;-73
2021/10/25 03:40:58;;;;;;;19.85;15.93;;;13.60;58.70;;;;;;5052945;28;20033;-73
2021/10/25 03:43:27;;;;;;;20.52;15.55;;;13.70;58.60;;;;;;5043825;28;20029;-73
2021/10/25 03:46:05;;;;;;;21.92;15.52;;;13.70;58.60;;;;;;5034141;28;20427;-73
2021/10/25 03:48:38;;;;;;;19.92;14.88;;;13.70;59.00;;;;;;5042500;28;20033;-73
2021/10/25 03:51:06;;;;;;;23.58;15.68;;;13.80;59.70;;;;;;5043853;28;20109;-73
2021/10/25 04:28:10;;;;;;;13.55;9.40;;;13.60;53.00;;;;;;5035852;28;20041;-73
2021/10/25 04:30:37;;;;;;;13.85;10.32;;;13.60;52.50;;;;;;5053364;28;20017;-73
2021/10/25 04:33:03;;;;;;;16.17;11.35;;;13.70;52.80;;;;;;5050355;28;20024;-73
2021/10/25 04:35:29;;;;;;;13.75;11.68;;;13.70;52.40;;;;;;5052820;28;20041;-73
2021/10/25 04:37:55;;;;;;;15.15;11.15;;;13.70;52.70;;;;;;5051723;28;20037;-73
2021/10/25 04:40:21;;;;;;;14.93;11.10;;;13.70;52.30;;;;;;5053080;28;20074;-73
2021/10/25 04:42:47;;;;;;;14.98;10.07;;;13.70;52.50;;;;;;5050408;28;20028;-73
2021/10/25 04:45:13;;;;;;;13.82;10.27;;;13.70;51.40;;;;;;5033119;28;20479;-73
2021/10/25 04:47:38;;;;;;;15.68;11.00;;;13.70;50.00;;;;;;5031566;28;20029;-73
2021/10/25 04:50:06;;;;;;;14.07;10.82;;;13.70;51.30;;;;;;5030677;28;20475;-73
2021/10/25 04:52:32;;;;;;;14.52;10.23;;;13.60;50.40;;;;;;5033095;28;20025;-73
2021/10/25 04:54:57;;;;;;;12.77;8.98;;;13.70;50.60;;;;;;5032106;28;20040;-73
2021/10/25 04:57:23;;;;;;;17.20;9.38;;;13.70;49.50;;;;;;5032896;28;20355;-73
2021/10/25 04:59:49;;;;;;;11.95;9.07;;;13.80;49.70;;;;;;5045852;28;20438;-73
2021/10/25 05:02:14;;;;;;;12.35;9.02;;;13.80;49.50;;;;;;5052786;28;20031;-73
2021/10/25 05:04:41;;;;;;;16.10;8.60;;;13.80;49.30;;;;;;5035287;28;20148;-73
2021/10/25 05:07:06;;;;;;;13.15;8.40;;;13.80;48.90;;;;;;5033130;28;20025;-73
2021/10/25 05:09:33;;;;;;;9.43;8.30;;;13.80;48.20;;;;;;5045418;28;20484;-73
2021/10/25 05:11:59;;;;;;;10.73;7.95;;;13.70;47.60;;;;;;5048906;28;20034;-73
2021/10/25 05:14:25;;;;;;;11.52;8.25;;;13.70;48.40;;;;;;5044502;28;20052;-73
2021/10/25 05:16:51;;;;;;;14.50;8.32;;;13.70;47.90;;;;;;5055978;28;20071;-73
2021/10/25 05:19:16;;;;;;;9.13;7.85;;;13.70;46.80;;;;;;5046793;28;20070;-72
2021/10/25 05:21:42;;;;;;;11.20;8.75;;;13.70;48.00;;;;;;5056724;28;20363;-72
2021/10/25 05:24:08;;;;;;;11.98;9.05;;;13.70;47.80;;;;;;5054411;28;20059;-72
2021/10/25 05:26:34;;;;;;;14.18;9.52;;;13.70;47.40;;;;;;5056700;28;20067;-73
2021/10/25 05:28:59;;;;;;;11.18;8.23;;;13.70;47.40;;;;;;5044509;28;20187;-73
2021/10/25 05:31:28;;;;;;;14.77;9.50;;;13.50;47.30;;;;;;5036585;28;20029;-73
2021/10/25 05:33:54;;;;;;;14.68;9.05;;;13.50;47.30;;;;;;5035749;28;20025;-73
2021/10/25 05:36:20;;;;;;;11.90;8.50;;;13.50;47.30;;;;;;5028321;28;20056;-73
2021/10/25 05:38:46;;;;;;;12.70;9.45;;;13.50;47.10;;;;;;5025479;28;20096;-73
2021/10/25 05:41:13;;;;;;;11.15;8.43;;;13.50;47.40;;;;;;5031363;28;20029;-73
2021/10/25 05:43:51;;;;;;;10.82;8.13;;;13.60;46.70;;;;;;5039538;28;20226;-73
2021/10/25 05:46:16;;;;;;;10.80;8.38;;;13.60;46.50;;;;;;5055490;28;20036;-72
2021/10/25 05:48:42;;;;;;;10.82;8.25;;;13.60;47.10;;;;;;5040831;28;20029;-73
2021/10/25 05:51:08;;;;;;;14.45;8.90;;;13.60;46.60;;;;;;5040935;28;20120;-73
2021/10/25 05:53:34;;;;;;;13.52;8.80;;;13.60;46.90;;;;;;5036950;28;20461;-73
2021/10/25 05:56:00;;;;;;;11.50;8.65;;;13.60;46.80;;;;;;5054594;28;20028;-72
2021/10/25 05:58:26;;;;;;;12.05;8.73;;;13.60;46.30;;;;;;5050993;28;20033;-73
2021/10/25 06:04:17;;;;;;;10.05;7.97;;;13.60;46.20;;;;;;5042369;28;20429;-73
2021/10/25 06:06:43;;;;;;;10.50;8.40;;;13.40;45.70;;;;;;5055956;28;20406;-72
2021/10/25 06:09:09;;;;;;;13.57;8.55;;;13.50;46.40;;;;;;5047373;28;20017;-72
2021/10/25 06:11:35;;;;;;;11.85;8.63;;;13.50;46.30;;;;;;5036000;28;20426;-72
2021/10/25 06:17:26;;;;;;;11.63;8.15;;;13.70;46.80;;;;;;5032918;28;20091;-73
2021/10/25 06:19:52;;;;;;;13.68;9.02;;;13.70;45.70;;;;;;5038118;28;20491;-73
2021/10/25 06:22:21;;;;;;;13.55;8.90;;;13.70;45.90;;;;;;5029538;28;20041;-73
2021/10/25 06:24:48;;;;;;;14.70;9.93;;;13.70;45.80;;;;;;5025988;28;20034;-73
2021/10/25 06:27:14;;;;;;;14.60;9.70;;;13.60;45.60;;;;;;5033977;28;20045;-73
2021/10/25 06:29:40;;;;;;;12.68;9.63;;;13.60;45.90;;;;;;5043655;28;20505;-73
2021/10/25 06:32:06;;;;;;;12.90;9.63;;;13.50;45.70;;;;;;5055550;28;20075;-73
2021/10/25 06:34:39;;;;;;;11.50;8.82;;;13.60;45.90;;;;;;5043380;28;20037;-72
2021/10/25 06:37:05;;;;;;;15.57;10.30;;;13.70;45.90;;;;;;5034156;28;20037;-74
2021/10/25 06:39:37;;;;;;;12.23;9.40;;;13.70;45.60;;;;;;5040297;28;20056;-73
2021/10/25 06:42:05;;;;;;;19.35;9.90;;;13.70;45.20;;;;;;5051705;28;20021;-72
2021/10/25 06:44:32;;;;;;;10.43;7.05;;;13.70;45.10;;;;;;5052237;28;20033;-73
2021/10/25 06:46:58;;;;;;;14.10;8.23;;;13.80;44.20;;;;;;5054399;28;20486;-73
2021/10/25 06:49:25;;;;;;;15.77;8.75;;;13.80;44.00;;;;;;5052794;28;20096;-73
2021/10/25 06:51:51;;;;;;;15.32;8.70;;;13.90;43.70;;;;;;5055107;28;20043;-73
2021/10/25 06:54:17;;;;;;;13.63;9.57;;;14.00;44.00;;;;;;5052934;28;20482;-73
2021/10/25 06:56:44;;;;;;;18.77;8.40;;;14.00;43.50;;;;;;5039234;28;20033;-73
2021/10/25 06:59:09;;;;;;;14.30;7.43;;;13.90;42.40;;;;;;5054973;28;20059;-73
2021/10/25 07:01:35;;;;;;;15.00;8.20;;;13.90;42.80;;;;;;5043075;28;20033;-73
2021/10/25 07:04:00;;;;;;;12.25;8.43;;;13.80;42.30;;;;;;5038918;28;20024;-73
2021/10/25 07:06:29;;;;;;;11.18;8.05;;;13.90;42.60;;;;;;5031966;28;20033;-73
2021/10/25 07:12:16;;;;;;;10.35;7.72;;;13.90;40.50;;;;;;5044546;28;20087;-74
2021/10/25 07:14:43;;;;;;;9.80;7.38;;;13.80;42.30;;;;;;5052942;28;20517;-74
2021/10/25 07:20:25;;;;;;;13.18;7.40;;;13.90;40.90;;;;;;5047215;28;20372;-75
2021/10/25 07:26:28;;;;;;;;;;;13.90;40.00;;;;;;5031971;28;20054;-75
2021/10/25 08:12:10;;;;;;;8.88;7.35;;;14.60;39.50;;;;;;5037638;28;20033;-69
2021/10/25 08:14:39;;;;;;;14.32;7.05;;;14.50;39.20;;;;;;5038438;28;20148;-70
2021/10/25 08:17:07;;;;;;;9.45;7.28;;;14.50;39.20;;;;;;5030530;28;20120;-73
2021/10/25 08:19:53;;;;;;;9.57;7.10;;;14.60;38.90;;;;;;5042626;28;20075;-73
2021/10/25 08:22:19;;;;;;;12.35;6.68;;;14.70;37.20;;;;;;5027916;28;20034;-73
2021/10/25 08:24:48;;;;;;;9.90;6.55;;;14.60;37.40;;;;;;5033266;28;20021;-73
2021/10/25 08:27:16;;;;;;;8.68;6.80;;;14.70;38.00;;;;;;5037189;28;20024;-73
2021/10/25 08:29:44;;;;;;;13.00;6.75;;;14.60;37.50;;;;;;5037984;28;20022;-73
2021/10/25 08:35:04;;;;;;;9.55;5.97;;;14.70;36.50;;;;;;5030281;28;20041;-72
2021/10/25 08:39:59;;;;;;;10.57;6.50;;;14.70;37.60;;;;;;5035953;28;20025;-73
2021/10/25 08:42:28;;;;;;;6.13;5.40;;;14.70;37.20;;;;;;5031357;28;20057;-72
2021/10/25 08:44:58;;;;;;;8.95;6.20;;;14.60;36.40;;;;;;5031316;28;20021;-72
2021/10/25 08:47:28;;;;;;;12.50;6.97;;;14.70;36.70;;;;;;5038810;28;20021;-72
2021/10/25 08:49:56;;;;;;;8.73;5.80;;;14.60;36.60;;;;;;5052122;28;20028;-72
2021/10/25 08:52:24;;;;;;;12.13;6.47;;;14.70;36.80;;;;;;5050714;28;20021;-72
2021/10/25 08:54:52;;;;;;;7.88;5.30;;;14.60;36.90;;;;;;5051800;28;20051;-72
2021/10/25 08:57:28;;;;;;;13.98;6.50;;;14.50;35.90;;;;;;5050927;28;20037;-73
2021/10/25 09:00:03;;;;;;;13.55;6.40;;;14.50;35.90;;;;;;5053038;28;20040;-73
2021/10/25 09:02:30;;;;;;;12.50;6.88;;;14.60;36.90;;;;;;5047508;28;20040;-72
2021/10/25 09:05:00;;;;;;;12.02;6.63;;;14.50;36.50;;;;;;5013604;28;20375;-72
2021/10/25 09:07:26;;;;;;;11.00;6.30;;;14.50;35.70;;;;;;5012933;28;20022;-72
2021/10/25 09:09:51;;;;;;;10.27;6.60;;;14.70;37.00;;;;;;5052074;28;20025;-72
2021/10/25 09:12:18;;;;;;;10.57;5.60;;;14.80;36.60;;;;;;5052650;28;20094;-72
2021/10/25 09:14:57;;;;;;;7.95;6.30;;;14.80;36.40;;;;;;5045728;28;20033;-72
2021/10/25 09:17:23;;;;;;;12.80;7.90;;;14.90;36.50;;;;;;5032650;28;20371;-72
2021/10/25 09:19:49;;;;;;;10.65;7.75;;;15.00;36.50;;;;;;5031387;28;20029;-72
2021/10/25 09:22:19;;;;;;;14.48;7.75;;;15.00;36.70;;;;;;5032587;28;20026;-71
2021/10/25 09:24:56;;;;;;;11.82;7.45;;;15.00;37.00;;;;;;5029425;28;20458;-71
2021/10/25 09:27:38;;;;;;;11.98;7.72;;;15.10;37.50;;;;;;5033009;28;20103;-71
2021/10/25 09:30:16;;;;;;;14.27;7.65;;;14.90;36.50;;;;;;5013125;28;20044;-72
2021/10/25 09:32:46;;;;;;;11.98;7.07;;;15.10;36.90;;;;;;5014837;28;20468;-73
2021/10/25 09:35:27;;;;;;;8.80;5.93;;;15.20;36.50;;;;;;5052317;28;20135;-73
2021/10/25 09:37:58;;;;;;;9.68;6.35;;;15.20;36.10;;;;;;5048351;28;20041;-72
2021/10/25 09:40:33;;;;;;;9.57;6.25;;;15.30;36.40;;;;;;5032758;28;20029;-73
2021/10/25 09:43:22;;;;;;;11.77;6.20;;;15.30;35.80;;;;;;5034717;28;20367;-73
2021/10/25 09:45:58;;;;;;;17.58;6.72;;;15.30;35.50;;;;;;5052204;28;20544;-73
2021/10/25 09:51:08;;;;;;;7.78;5.00;;;15.30;34.80;;;;;;5030895;28;20088;-72
2021/10/25 09:53:37;;;;;;;11.77;4.75;;;15.30;35.50;;;;;;5031302;28;20467;-71
2021/10/25 09:56:06;;;;;;;8.48;4.88;;;15.40;34.80;;;;;;5033019;28;20390;-72
2021/10/25 09:58:44;;;;;;;6.45;4.97;;;15.10;33.60;;;;;;5038016;28;20029;-72
2021/10/25 10:01:11;;;;;;;36.03;8.40;;;15.30;34.60;;;;;;5035753;28;20463;-72
2021/10/25 10:03:37;;;;;;;14.88;5.63;;;15.30;33.80;;;;;;5035003;28;20437;-72
2021/10/25 10:06:03;;;;;;;7.63;4.35;;;15.30;34.20;;;;;;5035805;28;20029;-73
2021/10/25 10:08:28;;;;;;;8.50;5.32;;;15.50;34.40;;;;;;5040788;28;20470;-73
2021/10/25 10:11:00;;;;;;;7.13;5.25;;;15.50;34.20;;;;;;5040069;28;20134;-73
2021/10/25 10:13:27;;;;;;;10.50;5.40;;;15.40;34.60;;;;;;5034738;28;20026;-73
2021/10/25 10:15:57;;;;;;;6.32;5.22;;;15.40;34.90;;;;;;5033973;28;20045;-73
2021/10/25 10:18:25;;;;;;;7.32;5.25;;;15.40;35.30;;;;;;5034837;28;20114;-73
2021/10/25 10:20:56;;;;;;;9.85;5.60;;;15.40;34.80;;;;;;5033536;28;20479;-73
2021/10/25 10:23:23;;;;;;;9.07;5.40;;;15.30;35.80;;;;;;5043232;28;20033;-72
2021/10/25 10:26:03;;;;;;;7.53;5.45;;;15.40;35.20;;;;;;5035555;28;20545;-73
2021/10/25 10:28:37;;;;;;;10.65;5.63;;;15.40;34.60;;;;;;5035617;28;20104;-72
2021/10/25 10:31:11;;;;;;;9.07;5.97;;;15.30;35.30;;;;;;5035943;28;20037;-73
2021/10/25 10:33:54;;;;;;;7.85;6.03;;;15.50;35.50;;;;;;5032650;28;20055;-73
2021/10/25 10:36:21;;;;;;;9.48;5.95;;;15.40;35.40;;;;;;5014722;28;20041;-73
2021/10/25 10:38:50;;;;;;;9.48;5.55;;;15.60;35.50;;;;;;5037458;28;20017;-73
2021/10/25 10:41:17;;;;;;;8.90;5.88;;;15.50;35.30;;;;;;5054935;28;20021;-73
2021/10/25 10:44:02;;;;;;;8.57;5.25;;;15.40;34.90;;;;;;5051211;28;20032;-73
2021/10/25 10:47:12;;;;;;;9.25;4.95;;;15.50;34.00;;;;;;5040263;28;20369;-73
2021/10/25 10:49:41;;;;;;;7.50;5.18;;;15.40;33.70;;;;;;5045286;28;20036;-73
2021/10/25 10:52:52;;;;;;;8.43;5.18;;;15.10;35.60;;;;;;5053898;28;20384;-73
2021/10/25 10:55:04;;;;;;;9.27;5.65;;;15.20;35.20;;;;;;5040089;28;20042;-73
2021/10/25 11:00:36;;;;;;;10.85;5.35;;;15.40;34.00;;;;;;5046941;28;20386;-73
2021/10/25 11:03:04;;;;;;;8.45;5.45;;;15.20;34.60;;;;;;5053816;28;20079;-73
2021/10/25 11:05:44;;;;;;;5.63;4.32;;;15.20;34.30;;;;;;5038909;28;20041;-73
2021/10/25 11:08:13;;;;;;;6.55;4.50;;;15.20;33.40;;;;;;5034240;28;20482;-73
2021/10/25 11:10:43;;;;;;;8.32;4.70;;;15.30;33.60;;;;;;5033982;28;20112;-73
2021/10/25 11:13:24;;;;;;;9.68;4.43;;;15.30;32.50;;;;;;5034216;28;20065;-73
2021/10/25 11:16:01;;;;;;;14.85;10.82;;;15.20;32.90;;;;;;5050636;28;20098;-72
2021/10/25 11:18:29;;;;;;;9.13;5.97;;;15.30;31.00;;;;;;5053553;28;20107;-73
2021/10/25 11:21:25;;;;;;;9.63;7.05;;;15.10;32.80;;;;;;5049114;28;20032;-73
2021/10/25 11:23:55;;;;;;;7.45;4.80;;;15.30;32.20;;;;;;5052724;28;20029;-74
2021/10/25 11:26:34;;;;;;;10.13;5.88;;;15.30;32.20;;;;;;5032590;28;20057;-72
2021/10/25 11:29:10;;;;;;;7.38;6.32;;;15.40;31.50;;;;;;5028456;28;20033;-73
2021/10/25 11:31:42;;;;;;;6.60;5.43;;;15.60;32.20;;;;;;5033908;28;20033;-73
2021/10/25 11:34:32;;;;;;;6.95;5.07;;;15.80;31.70;;;;;;5034538;28;20553;-73
2021/10/25 11:37:05;;;;;;;7.50;5.97;;;15.80;31.80;;;;;;5030980;28;20126;-73
2021/10/25 11:39:36;;;;;;;7.15;6.05;;;15.80;30.10;;;;;;5035472;28;20419;-73
2021/10/25 11:42:04;;;;;;;11.93;5.65;;;15.90;31.90;;;;;;5033371;28;20028;-73
2021/10/25 11:44:31;;;;;;;7.00;5.15;;;16.00;31.80;;;;;;5047704;28;20033;-71
2021/10/25 11:46:57;;;;;;;13.32;6.90;;;16.10;31.10;;;;;;5034290;28;20061;-72
2021/10/25 11:49:23;;;;;;;29.73;19.30;;;16.30;32.00;;;;;;5031250;28;20104;-71
2021/10/25 11:51:55;;;;;;;17.70;12.52;;;16.40;32.40;;;;;;5018900;28;20434;-71
2021/10/25 11:54:21;;;;;;;15.18;8.38;;;16.40;32.30;;;;;;5024302;28;20026;-70
2021/10/25 11:56:54;;;;;;;9.85;8.18;;;16.40;32.10;;;;;;5033701;28;20037;-71
2021/10/25 11:59:21;;;;;;;16.77;9.75;;;16.40;31.80;;;;;;5031704;28;20382;-71
2021/10/25 12:01:48;;;;;;;12.98;8.63;;;16.40;32.30;;;;;;5033741;28;20033;-71
2021/10/25 12:04:14;;;;;;;15.90;7.78;;;16.40;32.30;;;;;;5032546;28;20454;-71
2021/10/25 12:06:51;;;;;;;7.40;5.90;;;16.50;31.90;;;;;;5032616;28;20198;-70
2021/10/25 12:09:16;;;;;;;10.85;6.95;;;16.60;31.80;;;;;;5035184;28;20029;-73
2021/10/25 12:11:51;;;;;;;7.78;5.40;;;16.50;31.40;;;;;;5032556;28;20372;-73
2021/10/25 12:14:23;;;;;;;9.77;6.13;;;16.60;31.30;;;;;;5033269;28;20026;-74
2021/10/25 12:16:49;;;;;;;11.15;6.75;;;16.70;31.20;;;;;;5049076;28;20075;-74
2021/10/25 12:19:19;;;;;;;8.45;6.57;;;16.90;31.10;;;;;;5033466;28;20025;-74
2021/10/25 12:21:46;;;;;;;11.05;6.03;;;16.80;30.70;;;;;;5041331;28;20034;-74
2021/10/25 12:24:12;;;;;;;8.85;6.32;;;17.00;30.40;;;;;;5049473;28;20029;-73
2021/10/25 12:26:39;;;;;;;11.00;6.53;;;17.10;30.50;;;;;;5032988;28;20373;-74
2021/10/25 12:29:19;;;;;;;9.02;5.57;;;17.10;30.50;;;;;;5030813;28;20036;-74
2021/10/25 12:31:47;;;;;;;6.55;5.95;;;17.10;29.80;;;;;;5035931;28;20030;-74
2021/10/25 12:34:13;;;;;;;10.15;6.50;;;17.00;30.40;;;;;;5032910;28;20029;-74
2021/10/25 12:36:43;;;;;;;9.88;5.53;;;16.80;30.30;;;;;;5028273;28;20052;-74
2021/10/25 12:39:15;;;;;;;7.05;6.07;;;16.80;29.70;;;;;;5032523;28;20100;-74
2021/10/25 12:41:59;;;;;;;5.93;4.65;;;16.60;28.60;;;;;;5030714;28;20442;-74
2021/10/25 12:44:33;;;;;;;10.63;4.93;;;16.80;27.80;;;;;;5026584;28;20022;-73
2021/10/25 12:47:08;;;;;;;;;;;16.60;28.70;;;;;;5021577;28;20020;-74
2021/10/25 12:49:34;;;;;;;6.40;5.53;;;16.50;27.30;;;;;;5030457;28;19905;-73
2021/10/25 12:52:08;;;;;;;5.88;5.25;;;16.70;29.20;;;;;;5046637;28;20108;-74
2021/10/25 12:54:36;;;;;;;9.57;5.43;;;16.80;27.10;;;;;;5030952;28;20068;-74
2021/10/25 12:57:14;;;;;;;8.13;5.00;;;17.10;28.00;;;;;;5029861;28;20099;-74
2021/10/25 12:59:40;;;;;;;8.32;5.07;;;17.60;27.80;;;;;;5032745;28;20394;-74
2021/10/25 13:02:09;;;;;;;8.60;5.60;;;17.60;26.90;;;;;;5032855;28;20132;-74
2021/10/25 13:04:35;;;;;;;10.05;5.68;;;17.90;26.60;;;;;;5026986;28;20029;-68
2021/10/25 13:07:14;;;;;;;8.05;5.72;;;17.90;27.40;;;;;;5031711;28;20128;-67
2021/10/25 13:09:53;;;;;;;11.30;5.80;;;;;;;;;;5019995;28;20033;-68
2021/10/25 13:12:20;;;;;;;9.77;5.97;;;;;;;;;;5026115;28;20163;-73
2021/10/25 13:14:46;;;;;;;9.27;5.32;;;18.50;49.10;;;;;;5032823;28;20066;-72
2021/10/25 13:17:49;;;;;;;9.55;6.07;;;18.20;43.10;;;;;;5031645;28;20120;-73
2021/10/25 13:20:18;;;;;;;7.75;6.03;;;17.90;36.30;;;;;;5032703;28;20086;-72
2021/10/25 13:22:44;;;;;;;6.50;5.70;;;17.30;36.30;;;;;;5034710;28;20052;-73
2021/10/25 13:25:10;;;;;;;8.35;6.03;;;17.20;35.20;;;;;;5032011;28;20056;-72
2021/10/25 13:27:37;;;;;;;6.22;5.45;;;17.10;35.70;;;;;;5029790;28;20025;-73
2021/10/25 13:30:05;;;;;;;8.82;4.82;;;17.10;35.20;;;;;;5032091;28;20068;-72
2021/10/25 13:32:31;;;;;;;47.10;37.63;;;17.20;34.90;;;;;;5030662;28;20038;-73
2021/10/25 13:34:57;;;;;;;10.40;7.72;;;17.20;35.30;;;;;;5030199;28;20056;-72
2021/10/25 13:37:26;;;;;;;5.68;4.90;;;17.10;34.60;;;;;;5033513;28;20045;-72
2021/10/25 13:39:52;;;;;;;7.40;4.57;;;17.00;34.10;;;;;;5035556;28;20029;-72
2021/10/25 13:42:17;;;;;;;7.35;5.28;;;17.00;34.90;;;;;;5036297;28;20485;-73
2021/10/25 13:44:44;;;;;;;8.40;5.38;;;17.00;34.80;;;;;;5031523;28;20022;-73
2021/10/25 13:47:10;;;;;;;10.88;6.10;;;17.10;35.40;;;;;;5017939;28;20538;-73
2021/10/25 13:49:36;;;;;;;10.07;5.82;;;17.00;35.30;;;;;;5022725;28;20021;-73
2021/10/25 13:52:02;;;;;;;7.88;6.25;;;16.90;35.20;;;;;;5035503;28;20091;-73
2021/10/25 13:54:28;;;;;;;9.65;5.63;;;17.00;35.30;;;;;;5036481;28;20340;-73
2021/10/25 13:56:54;;;;;;;6.55;5.85;;;16.90;35.70;;;;;;5026109;28;20080;-73
2021/10/25 13:59:19;;;;;;;7.13;5.55;;;16.70;35.40;;;;;;5022997;28;20026;-73
2021/10/25 14:01:45;;;;;;;8.73;6.18;;;16.70;35.40;;;;;;5038778;28;20036;-72
2021/10/25 14:04:15;;;;;;;8.60;6.25;;;16.70;35.80;;;;;;5035990;28;20029;-72
2021/10/25 14:06:46;;;;;;;8.05;5.65;;;16.70;36.00;;;;;;5049818;28;20039;-72
2021/10/25 14:09:12;;;;;;;8.43;5.55;;;16.70;35.10;;;;;;5055879;28;20449;-72
2021/10/25 14:11:44;;;;;;;10.77;5.20;;;16.60;35.40;;;;;;5039970;28;20514;-72
2021/10/25 14:16:41;;;;;;;12.68;6.50;;;16.60;35.30;;;;;;5048531;28;20033;-71
2021/10/25 14:19:07;;;;;;;7.18;5.25;;;16.60;35.70;;;;;;5016384;28;20068;-71
2021/10/25 14:21:37;;;;;;;8.13;6.97;;;16.70;36.00;;;;;;5029155;28;20115;-72
2021/10/25 14:24:05;;;;;;;9.88;6.30;;;16.70;35.40;;;;;;5035572;28;20028;-72
2021/10/25 14:26:31;;;;;;;6.45;5.80;;;16.70;36.20;;;;;;5047361;28;20104;-71
2021/10/25 14:28:57;;;;;;;9.52;6.38;;;16.70;35.40;;;;;;5055623;28;20055;-72
2021/10/25 14:31:24;;;;;;;6.85;5.10;;;16.80;35.70;;;;;;5037803;28;20025;-71
2021/10/25 14:33:51;;;;;;;8.63;6.05;;;16.90;35.70;;;;;;5035356;28;20034;-71